Time;durP1;ratioP1;P1;durP2;ratioP2;P2;SDS_P1;SDS_P2;PMS_P1;PMS_P2;Temp;Humidity;BMP_temperature;BMP_pressure;BME280_temperature;BME280_humidity;BME280_pressure;Samples;Min_cycle;Max_cycle;Signal;HPM_P1;HPM_P2
2022/01/16 00:06:28;;;;;;;14.70;10.18;;;;;;;3.11;86.58;99525.28;4860555;29;20041;-88
2022/01/16 00:08:55;;;;;;;16.05;11.45;;;;;;;3.06;86.23;99516.28;4843529;29;20388;-89
2022/01/16 00:11:21;;;;;;;15.25;10.80;;;;;;;2.87;86.77;99470.22;4858681;29;20716;-87
2022/01/16 00:13:46;;;;;;;13.70;10.38;;;;;;;2.72;86.58;99430.72;4828394;29;20041;-87
2022/01/16 00:16:13;;;;;;;15.48;10.63;;;;;;;3.24;86.56;99516.69;4860184;29;20041;-86
2022/01/16 00:18:58;;;;;;;15.38;10.43;;;;;;;2.66;86.47;99426.19;4860947;29;20038;-89
2022/01/16 00:21:36;;;;;;;15.35;9.90;;;;;;;2.88;86.36;99475.28;4844199;29;20117;-87
2022/01/16 00:24:03;;;;;;;13.13;10.38;;;;;;;2.58;86.23;99430.72;4858807;29;20048;-88
2022/01/16 00:26:35;;;;;;;14.88;10.10;;;;;;;2.88;86.21;99470.03;4844814;29;20033;-85
2022/01/16 00:29:07;;;;;;;14.82;10.10;;;;;;;2.75;85.79;99455.88;4859583;29;20032;-88
2022/01/16 00:31:33;;;;;;;17.92;10.10;;;;;;;3.08;85.98;99512.44;4860953;29;20041;-89
2022/01/16 00:33:59;;;;;;;15.63;10.48;;;;;;;3.31;86.47;99554.53;4859041;29;20082;-91
2022/01/16 00:36:24;;;;;;;15.38;10.25;;;;;;;2.68;86.09;99439.16;4859816;29;20065;-90
2022/01/16 00:38:52;;;;;;;16.92;11.43;;;;;;;2.89;85.63;99481.38;4859256;29;20030;-89
2022/01/16 00:41:20;;;;;;;16.95;11.52;;;;;;;2.69;86.11;99427.59;4856639;29;20021;-89
2022/01/16 00:43:47;;;;;;;17.90;11.52;;;;;;;3.30;86.26;99508.06;4859121;29;20507;-87
2022/01/16 00:46:14;;;;;;;18.23;10.63;;;;;;;2.66;86.02;99415.63;4859049;29;20037;-89
2022/01/16 00:48:39;;;;;;;17.92;11.02;;;;;;;2.39;86.48;99376.78;4843805;29;20029;-90
2022/01/16 00:51:06;;;;;;;21.27;11.52;;;;;;;3.28;86.40;99505.59;4858550;29;20511;-88
2022/01/16 00:53:31;;;;;;;15.80;10.98;;;;;;;2.63;86.37;99410.72;4858745;29;20124;-87
2022/01/16 00:55:58;;;;;;;17.17;10.43;;;;;;;2.72;86.36;99433.34;4860007;29;20604;-87
2022/01/16 00:58:24;;;;;;;17.23;10.50;;;;;;;2.41;86.12;99393.22;4858786;29;20033;-90
2022/01/16 01:00:49;;;;;;;16.02;10.45;;;;;;;2.71;86.08;99439.59;4858957;29;20499;-87
2022/01/16 01:03:16;;;;;;;17.95;10.75;;;;;;;3.27;86.19;99524.25;4858992;29;20036;-88
2022/01/16 01:05:42;;;;;;;17.40;10.82;;;;;;;2.35;86.16;99353.63;4843333;29;20029;-88
2022/01/16 01:08:08;;;;;;;15.45;10.70;;;;;;;3.06;86.25;99460.91;4858781;29;20044;-87
2022/01/16 01:10:36;;;;;;;16.73;10.85;;;;;;;3.23;86.41;99505.34;4859949;29;20030;-86
2022/01/16 01:13:08;;;;;;;16.35;10.45;;;;;;;2.97;85.88;99449.66;4858304;29;20060;-87
2022/01/16 01:15:44;;;;;;;17.10;11.40;;;;;;;3.27;86.77;99500.50;4859888;29;20029;-88
2022/01/16 01:18:09;;;;;;;13.98;10.55;;;;;;;2.46;85.93;99364.50;4857474;29;20037;-86
2022/01/16 01:20:36;;;;;;;15.98;10.75;;;;;;;3.23;86.15;99481.63;4858817;29;20033;-87
2022/01/16 01:23:01;;;;;;;16.15;10.13;;;;;;;2.62;86.33;99390.63;4843033;29;20033;-89
2022/01/16 01:25:26;;;;;;;17.98;10.45;;;;;;;2.75;86.40;99413.72;4858530;29;20501;-87
2022/01/16 01:27:52;;;;;;;17.05;10.55;;;;;;;3.01;85.98;99457.00;4859647;29;20493;-86
2022/01/16 01:30:23;;;;;;;17.10;11.18;;;;;;;2.44;85.79;99369.16;4839907;29;20555;-87
2022/01/16 01:32:53;;;;;;;17.67;10.40;;;;;;;3.25;86.12;99494.59;4851453;29;20048;-87
2022/01/16 01:35:20;;;;;;;18.58;11.10;;;;;;;3.26;86.02;99490.94;4859777;29;20029;-89
2022/01/16 01:37:47;;;;;;;17.00;10.60;;;;;;;3.21;85.68;99451.94;4858423;29;20109;-87
2022/01/16 01:40:24;;;;;;;16.85;10.07;;;;;;;2.77;86.15;99344.00;4859456;29;20031;-86
2022/01/16 01:51:32;;;;;;;15.43;9.32;;;;;;;2.71;85.62;99357.91;4849153;29;20121;-85
2022/01/16 01:53:58;;;;;;;17.35;10.82;;;;;;;2.43;85.90;99333.25;4851734;29;20484;-87
2022/01/16 01:56:25;;;;;;;15.82;8.93;;;;;;;3.13;85.75;99448.59;4851974;29;20053;-85
2022/01/16 01:58:57;;;;;;;12.45;8.32;;;;;;;2.50;85.65;99354.41;4871975;29;20045;-88
2022/01/16 02:01:22;;;;;;;15.68;9.48;;;;;;;2.31;85.50;99326.84;4841294;29;20037;-89
2022/01/16 02:03:49;;;;;;;14.63;8.35;;;;;;;2.71;85.66;99389.53;4858083;29;20050;-89
2022/01/16 02:06:18;;;;;;;13.40;8.55;;;;;;;2.82;85.64;99415.41;4857374;29;20634;-88
2022/01/16 02:08:45;;;;;;;10.98;8.45;;;;;;;2.64;85.33;99385.19;4835165;29;20034;-88
2022/01/16 02:11:15;;;;;;;16.38;9.55;;;;;;;3.06;85.56;99451.16;4842547;29;20124;-87
2022/01/16 02:35:35;;;;;;;15.90;9.48;;;;;;;2.79;85.13;99418.44;4841556;29;20592;-86
2022/01/16 02:38:00;;;;;;;15.60;9.18;;;;;;;2.80;85.74;99406.88;4859899;29;20040;-86
2022/01/16 02:40:28;;;;;;;15.00;8.88;;;;;;;2.27;85.99;99330.84;4858218;29;20033;-87
2022/01/16 02:42:54;;;;;;;14.02;8.10;;;;;;;2.32;85.65;99344.25;4841405;29;20114;-86
2022/01/16 02:45:30;;;;;;;15.40;9.38;;;;;;;2.96;85.45;99442.75;4857855;29;20040;-88
2022/01/16 02:48:02;;;;;;;13.52;8.05;;;;;;;2.97;85.06;99439.91;4861388;29;20040;-87
2022/01/16 02:50:29;;;;;;;13.98;8.10;;;;;;;2.74;85.33;99381.25;4861616;29;20037;-86
2022/01/16 02:52:54;;;;;;;13.55;9.07;;;;;;;2.63;85.54;99362.47;4860773;29;20105;-88
2022/01/16 02:55:21;;;;;;;16.20;9.15;;;;;;;2.94;85.58;99411.31;4827278;29;20050;-88
2022/01/16 02:57:50;;;;;;;13.32;8.60;;;;;;;2.96;85.61;99398.75;4857927;29;20072;-88
2022/01/16 03:00:17;;;;;;;14.48;8.98;;;;;;;2.84;85.49;99386.25;4861378;29;20060;-86
2022/01/16 03:02:43;;;;;;;11.70;7.88;;;;;;;2.70;85.70;99350.19;4845190;29;20057;-87
2022/01/16 03:05:09;;;;;;;12.80;7.93;;;;;;;2.44;85.79;99318.28;4862436;29;20033;-87
2022/01/16 03:07:36;;;;;;;14.05;8.15;;;;;;;2.25;85.59;99285.41;4845190;29;20177;-88
2022/01/16 03:10:36;;;;;;;12.25;7.55;;;;;;;2.95;85.45;99383.09;4861029;29;20036;-88
2022/01/16 03:13:00;;;;;;;14.90;8.50;;;;;;;2.93;85.38;99378.03;4861866;29;20033;-87
2022/01/16 03:15:26;;;;;;;13.73;7.55;;;;;;;2.38;85.46;99304.00;4860469;29;20245;-88
2022/01/16 03:23:11;;;;;;;12.65;7.95;;;;;;;2.41;85.04;99289.66;4840826;29;20076;-87
2022/01/16 03:25:37;;;;;;;13.20;7.47;;;;;;;2.47;84.97;99305.53;4860984;29;20128;-88
2022/01/16 03:28:03;;;;;;;13.88;8.43;;;;;;;2.68;84.87;99329.31;4860533;29;20751;-89
2022/01/16 03:30:28;;;;;;;13.75;7.90;;;;;;;2.64;85.16;99324.59;4861111;29;20026;-87
2022/01/16 03:32:57;;;;;;;12.55;8.30;;;;;;;1.96;85.45;99196.81;4861491;29;20099;-87
2022/01/16 03:35:23;;;;;;;12.73;8.02;;;;;;;2.89;85.39;99344.31;4854085;29;20029;-87
2022/01/16 03:37:49;;;;;;;13.73;8.68;;;;;;;2.38;85.43;99256.59;4869774;29;20037;-89
2022/01/16 03:40:15;;;;;;;13.15;8.13;;;;;;;2.51;85.37;99280.44;4841681;29;20143;-89
2022/01/16 03:42:42;;;;;;;11.27;7.53;;;;;;;2.52;85.19;99284.72;4860525;29;20151;-87
2022/01/16 03:45:09;;;;;;;13.45;8.02;;;;;;;2.06;85.24;99212.28;4860315;29;20025;-86
2022/01/16 03:47:35;;;;;;;12.50;7.90;;;;;;;2.37;85.39;99262.06;4860287;29;20068;-87
2022/01/16 03:50:03;;;;;;;11.48;7.25;;;;;;;2.49;84.87;99273.75;4844895;29;20062;-86
2022/01/16 03:52:29;;;;;;;11.02;7.53;;;;;;;2.09;85.37;99206.66;4855815;29;20042;-89
2022/01/16 03:54:54;;;;;;;10.57;7.05;;;;;;;2.24;85.51;99225.88;4867028;29;20026;-88
2022/01/16 03:57:19;;;;;;;11.35;8.23;;;;;;;2.85;84.99;99322.78;4855739;29;20034;-87
2022/01/16 03:59:45;;;;;;;8.07;6.10;;;;;;;2.42;85.00;99257.06;4844966;29;20060;-87
2022/01/16 04:02:10;;;;;;;9.55;6.53;;;;;;;2.51;85.33;99274.38;4861163;29;20060;-89
2022/01/16 04:04:35;;;;;;;9.93;5.68;;;;;;;2.39;85.00;99279.31;4861414;29;20109;-88
2022/01/16 04:07:02;;;;;;;9.15;5.97;;;;;;;2.84;85.13;99357.25;4859624;29;20369;-88
2022/01/16 04:09:29;;;;;;;8.85;6.50;;;;;;;2.05;85.66;99227.25;4860242;29;20045;-87
2022/01/16 04:11:56;;;;;;;11.20;5.65;;;;;;;2.45;85.08;99281.19;4860031;29;20093;-88
2022/01/16 04:17:08;;;;;;;7.35;5.80;;;;;;;1.99;85.37;99206.13;4860213;29;20112;-85
2022/01/16 04:19:35;;;;;;;7.22;5.47;;;;;;;2.54;84.70;99297.72;4842247;29;20116;-87
2022/01/16 04:22:00;;;;;;;7.97;5.35;;;;;;;2.19;85.01;99249.28;4840830;29;20037;-86
2022/01/16 04:24:26;;;;;;;7.85;5.43;;;;;;;2.37;85.09;99272.59;4821963;29;20057;-89
2022/01/16 04:26:51;;;;;;;8.40;5.60;;;;;;;2.77;85.41;99344.00;4843317;29;20089;-86
2022/01/16 04:29:19;;;;;;;8.10;5.55;;;;;;;2.23;84.75;99261.09;4875260;29;20086;-86
2022/01/16 04:31:46;;;;;;;7.45;5.68;;;;;;;2.12;84.62;99245.75;4859305;29;20034;-87
2022/01/16 04:34:17;;;;;;;8.02;5.47;;;;;;;2.20;85.06;99264.09;4859222;29;20045;-87
2022/01/16 04:36:46;;;;;;;7.60;5.50;;;;;;;2.36;85.22;99289.41;4859438;29;20426;-88
2022/01/16 04:39:19;;;;;;;6.93;4.65;;;;;;;2.26;85.40;99271.25;4859499;29;20092;-87
2022/01/16 04:44:29;;;;;;;8.23;5.47;;;;;;;2.17;84.97;99267.09;4860160;29;20167;-89
2022/01/16 04:46:55;;;;;;;10.63;6.05;;;;;;;2.52;85.53;99334.78;4859190;29;20124;-87
2022/01/16 04:49:21;;;;;;;7.60;5.65;;;;;;;2.18;84.77;99272.16;4844478;29;20048;-88
2022/01/16 04:51:49;;;;;;;7.55;5.22;;;;;;;2.34;85.03;99315.13;4857739;29;20381;-86
2022/01/16 04:54:14;;;;;;;7.80;5.20;;;;;;;2.15;84.69;99277.81;4859342;29;20507;-89
2022/01/16 04:56:40;;;;;;;9.15;6.40;;;;;;;2.55;85.24;99354.69;4858577;29;20029;-89
2022/01/16 04:59:05;;;;;;;9.50;6.25;;;;;;;2.60;85.07;99358.38;4859211;29;20044;-88
2022/01/16 05:01:31;;;;;;;10.75;6.82;;;;;;;2.02;84.96;99271.56;4860170;29;20548;-88
2022/01/16 05:03:57;;;;;;;11.57;7.05;;;;;;;2.20;84.91;99282.53;4843258;29;20441;-87
2022/01/16 05:06:28;;;;;;;10.75;6.82;;;;;;;2.15;84.71;99285.72;4859875;29;20033;-87
2022/01/16 05:08:56;;;;;;;10.23;6.75;;;;;;;1.86;84.54;99229.66;4858281;29;20036;-87
2022/01/16 05:11:25;;;;;;;11.93;7.32;;;;;;;2.11;84.92;99286.28;4843588;29;20025;-87
2022/01/16 05:16:38;;;;;;;9.98;6.57;;;;;;;2.30;84.74;99325.19;4849056;29;20086;-87
2022/01/16 05:19:10;;;;;;;10.43;6.38;;;;;;;2.67;85.04;99393.53;4834270;29;20067;-87
2022/01/16 05:21:37;;;;;;;12.52;7.38;;;;;;;2.67;84.91;99393.53;4857390;29;20573;-88
2022/01/16 05:24:08;;;;;;;11.75;6.88;;;;;;;2.17;85.03;99307.41;4858822;29;20042;-87
2022/01/16 05:26:40;;;;;;;10.80;6.68;;;;;;;2.46;84.40;99371.59;4841391;29;20041;-85
2022/01/16 05:29:06;;;;;;;13.20;7.75;;;;;;;2.66;84.88;99386.66;4824646;29;20038;-90
2022/01/16 05:31:31;;;;;;;13.88;8.15;;;;;;;2.11;84.70;99304.69;4857864;29;20040;-87
2022/01/16 05:33:57;;;;;;;13.40;8.60;;;;;;;2.54;85.34;99397.81;4858523;29;20068;-89
2022/01/16 05:36:22;;;;;;;12.88;7.88;;;;;;;2.34;84.98;99347.53;4857543;29;20094;-86
2022/01/16 05:38:48;;;;;;;11.40;7.85;;;;;;;2.66;85.29;99404.28;4858354;29;20453;-88
2022/01/16 05:41:18;;;;;;;11.68;7.60;;;;;;;2.65;84.51;99398.19;4858396;29;20049;-87
2022/01/16 05:43:47;;;;;;;13.68;8.57;;;;;;;2.11;84.74;99305.53;4858506;29;20022;-88
2022/01/16 05:46:16;;;;;;;16.88;9.38;;;;;;;1.87;84.33;99257.63;4858593;29;20744;-90
2022/01/16 05:48:42;;;;;;;13.48;8.48;;;;;;;2.38;84.68;99348.78;4858357;29;20045;-86
2022/01/16 05:51:08;;;;;;;13.93;7.70;;;;;;;1.77;84.48;99234.19;4858814;29;20391;-89
2022/01/16 05:53:34;;;;;;;14.32;7.75;;;;;;;2.62;84.83;99377.44;4858307;29;20037;-89
2022/01/16 05:55:59;;;;;;;14.68;8.00;;;;;;;1.98;84.81;99278.22;4858310;29;20120;-89
2022/01/16 05:58:25;;;;;;;14.60;8.23;;;;;;;1.48;84.23;99208.75;4858380;29;20044;-88
2022/01/16 06:00:52;;;;;;;12.88;8.43;;;;;;;1.88;84.61;99269.78;4858918;29;20093;-87
2022/01/16 06:03:19;;;;;;;16.38;9.43;;;;;;;2.16;84.70;99310.25;4858111;29;20021;-89
2022/01/16 06:05:44;;;;;;;14.27;8.65;;;;;;;1.94;84.82;99271.69;4857858;29;20053;-89
2022/01/16 06:08:12;;;;;;;15.35;8.63;;;;;;;2.62;84.90;99366.13;4856166;29;20122;-89
2022/01/16 06:10:39;;;;;;;12.63;8.13;;;;;;;2.10;84.88;99289.88;4860342;29;20028;-90
2022/01/16 06:13:05;;;;;;;14.90;8.77;;;;;;;1.81;84.89;99239.94;4863282;29;20030;-88
2022/01/16 06:15:31;;;;;;;14.90;8.43;;;;;;;2.38;84.89;99321.66;4860357;29;20037;-87
2022/01/16 06:18:00;;;;;;;14.32;9.63;;;;;;;1.92;85.03;99242.88;4861350;29;20403;-87
2022/01/16 06:20:26;;;;;;;17.05;9.75;;;;;;;1.78;84.70;99245.53;4860136;29;20216;-89
2022/01/16 06:22:53;;;;;;;14.40;9.25;;;;;;;2.19;84.45;99307.22;4858417;29;20030;-87
2022/01/16 06:25:19;;;;;;;18.80;10.35;;;;;;;1.80;84.55;99231.22;4861906;29;20033;-87
2022/01/16 06:27:45;;;;;;;15.73;9.45;;;;;;;1.84;84.78;99240.38;4861233;29;20048;-87
2022/01/16 06:30:11;;;;;;;16.33;9.63;;;;;;;2.09;84.77;99281.19;4864168;29;20116;-89
2022/01/16 06:32:38;;;;;;;16.75;9.30;;;;;;;2.57;84.86;99366.66;4857303;29;20746;-89
2022/01/16 06:35:05;;;;;;;12.93;8.73;;;;;;;1.80;84.50;99239.09;4842616;29;20481;-86
2022/01/16 06:37:30;;;;;;;18.33;9.77;;;;;;;1.80;84.26;99244.38;4862702;29;20058;-89
2022/01/16 06:39:56;;;;;;;18.88;10.80;;;;;;;2.16;84.70;99289.97;4861860;29;20117;-87
2022/01/16 06:42:22;;;;;;;20.70;10.45;;;;;;;2.36;84.37;99318.38;4855312;29;20065;-88
2022/01/16 06:44:48;;;;;;;17.30;10.10;;;;;;;2.47;84.63;99339.00;4845224;29;20029;-91
2022/01/16 06:47:14;;;;;;;16.48;9.88;;;;;;;1.95;84.91;99252.25;4843078;29;20377;-87
2022/01/16 06:49:39;;;;;;;16.80;10.32;;;;;;;1.86;84.15;99242.81;4844880;29;20476;-89
2022/01/16 06:52:07;;;;;;;15.65;9.13;;;;;;;1.79;84.57;99232.19;4881108;29;20468;-88
2022/01/16 06:54:33;;;;;;;15.77;9.50;;;;;;;2.50;84.97;99354.41;4862641;29;20499;-87
2022/01/16 06:56:59;;;;;;;16.33;10.40;;;;;;;1.66;85.04;99226.75;4862402;29;20038;-88
2022/01/16 06:59:28;;;;;;;17.70;10.43;;;;;;;2.49;85.10;99348.31;4861839;29;20419;-88
2022/01/16 07:01:53;;;;;;;17.17;10.57;;;;;;;1.56;85.43;99209.63;4861551;29;21501;-88
2022/01/16 07:04:19;;;;;;;19.13;10.85;;;;;;;1.75;84.95;99227.50;4860774;29;20037;-88
2022/01/16 07:06:44;;;;;;;16.70;10.07;;;;;;;1.65;85.15;99219.88;4860507;29;20459;-88
2022/01/16 07:09:14;;;;;;;18.15;9.85;;;;;;;1.65;84.90;99224.31;4845715;29;20043;-87
2022/01/16 07:11:40;;;;;;;18.70;10.30;;;;;;;1.65;85.53;99230.41;4852063;29;20485;-89
2022/01/16 07:14:06;;;;;;;18.08;10.10;;;;;;;1.92;85.45;99261.31;4860206;29;20067;-88
2022/01/16 07:16:31;;;;;;;19.35;11.30;;;;;;;1.64;85.50;99222.72;4860885;29;20066;-89
2022/01/16 07:18:56;;;;;;;15.15;9.02;;;;;;;1.99;85.33;99270.13;4860656;29;20033;-89
2022/01/16 07:21:23;;;;;;;16.95;10.02;;;;;;;2.21;85.43;99305.22;4829326;29;20120;-89
2022/01/16 07:23:49;;;;;;;18.20;9.90;;;;;;;1.81;85.52;99248.66;4845927;29;20518;-87
2022/01/16 07:26:17;;;;;;;21.52;11.38;;;;;;;2.14;85.59;99297.25;4860728;29;20160;-88
2022/01/16 07:28:43;;;;;;;16.15;9.35;;;;;;;1.57;85.45;99203.38;4865898;29;20029;-86
2022/01/16 07:31:09;;;;;;;18.00;10.13;;;;;;;2.17;85.49;99304.78;4870253;29;20044;-85
2022/01/16 07:33:37;;;;;;;20.05;11.13;;;;;;;1.44;85.64;99194.31;4862824;29;20030;-88
2022/01/16 07:36:04;;;;;;;17.25;11.23;;;;;;;1.95;85.58;99262.78;4865046;29;20035;-87
2022/01/16 07:38:29;;;;;;;18.15;10.23;;;;;;;2.55;85.65;99368.69;4876358;29;20100;-87
2022/01/16 07:40:55;;;;;;;18.98;10.73;;;;;;;1.72;85.61;99233.94;4862862;29;20113;-87
2022/01/16 07:43:20;;;;;;;21.35;12.25;;;;;;;1.86;85.23;99266.50;4863954;29;20080;-87
2022/01/16 07:45:46;;;;;;;21.17;11.82;;;;;;;2.10;86.06;99295.16;4861423;29;20547;-87
2022/01/16 07:48:11;;;;;;;18.50;10.60;;;;;;;1.77;85.99;99259.72;4860025;29;20037;-89
2022/01/16 07:50:39;;;;;;;21.10;12.50;;;;;;;1.56;85.13;99234.13;4861917;29;20044;-89
2022/01/16 07:53:08;;;;;;;20.77;12.13;;;;;;;1.94;85.24;99287.47;4863222;29;20033;-87
2022/01/16 07:55:37;;;;;;;21.35;12.52;;;;;;;2.32;85.21;99369.78;4862728;29;20037;-87
2022/01/16 07:58:05;;;;;;;19.23;11.63;;;;;;;1.61;85.09;99228.31;4853506;29;20480;-88
2022/01/16 08:00:31;;;;;;;22.50;12.25;;;;;;;1.79;85.68;99262.97;4859932;29;20040;-89
2022/01/16 08:02:57;;;;;;;22.85;12.18;;;;;;;2.27;85.29;99344.00;4859050;29;20045;-87
2022/01/16 08:05:23;;;;;;;23.20;13.20;;;;;;;2.28;84.87;99362.25;4858307;29;20471;-88
2022/01/16 08:07:49;;;;;;;22.65;13.10;;;;;;;1.38;85.30;99213.44;4859207;29;20033;-88
2022/01/16 08:10:15;;;;;;;23.38;12.85;;;;;;;2.58;85.40;99407.00;4862327;29;20037;-87
2022/01/16 08:12:48;;;;;;;21.73;12.57;;;;;;;1.59;85.27;99230.31;4858688;29;20029;-88
2022/01/16 08:15:17;;;;;;;24.20;13.23;;;;;;;1.68;84.88;99255.53;4847989;29;20046;-87
2022/01/16 08:17:42;;;;;;;22.80;13.25;;;;;;;1.67;84.96;99270.50;4862065;29;20025;-88
2022/01/16 08:20:08;;;;;;;29.63;15.00;;;;;;;2.29;85.48;99344.66;4859885;29;20040;-87
2022/01/16 08:22:35;;;;;;;25.23;14.70;;;;;;;2.55;85.54;99387.13;4859351;29;20038;-88
2022/01/16 08:25:01;;;;;;;24.80;14.38;;;;;;;2.27;85.53;99349.28;4842047;29;20033;-85
2022/01/16 08:27:26;;;;;;;24.50;14.63;;;;;;;2.22;85.48;99351.63;4861421;29;20394;-89
2022/01/16 08:29:52;;;;;;;27.00;15.55;;;;;;;1.68;85.25;99268.69;4860609;29;20040;-89
2022/01/16 08:32:33;;;;;;;24.65;14.27;;;;;;;1.94;84.96;99309.34;4858536;29;20037;-88
2022/01/16 08:35:02;;;;;;;25.38;14.63;;;;;;;1.37;85.37;99205.75;4851239;29;20037;-86
2022/01/16 08:37:27;;;;;;;33.33;15.05;;;;;;;1.68;85.03;99253.75;4857255;29;20401;-89
2022/01/16 08:39:54;;;;;;;30.20;16.75;;;;;;;2.56;85.46;99386.09;4858787;29;20038;-87
2022/01/16 08:42:19;;;;;;;28.60;16.40;;;;;;;1.26;85.08;99188.63;4859255;29;20033;-88
2022/01/16 08:44:45;;;;;;;28.15;14.98;;;;;;;2.58;85.08;99384.09;4839672;29;20052;-87
2022/01/16 08:47:20;;;;;;;24.83;14.68;;;;;;;2.00;85.63;99305.16;4853631;29;20026;-88
2022/01/16 08:50:27;;;;;;;29.17;16.00;;;;;;;1.48;85.69;99208.75;4843091;29;20037;-88
2022/01/16 08:53:01;;;;;;;27.95;16.20;;;;;;;1.39;85.87;99211.63;4851899;29;20518;-88
2022/01/16 08:55:27;;;;;;;27.52;15.82;;;;;;;2.59;85.70;99393.66;4871939;29;20181;-91
2022/01/16 08:57:52;;;;;;;27.85;15.88;;;;;;;1.90;85.61;99299.38;4857696;29;20495;-89
2022/01/16 09:00:38;;;;;;;29.17;16.73;;;;;;;1.99;85.54;99311.41;4858975;29;20041;-88
2022/01/16 09:03:33;;;;;;;33.40;15.85;;;;;;;2.35;85.69;99362.34;4859057;29;20048;-88
2022/01/16 09:06:12;;;;;;;30.25;16.00;;;;;;;1.46;85.60;99226.50;4853011;29;20496;-91
2022/01/16 09:08:37;;;;;;;29.45;16.33;;;;;;;2.10;85.75;99329.38;4857990;29;20052;-87
2022/01/16 09:11:08;;;;;;;33.55;17.40;;;;;;;1.51;85.47;99239.09;4858540;29;20034;-90
2022/01/16 09:13:34;;;;;;;29.50;16.23;;;;;;;2.42;85.80;99389.59;4858636;29;20037;-90
2022/01/16 09:16:00;;;;;;;28.33;16.50;;;;;;;1.58;85.54;99245.28;4857224;29;20357;-90
2022/01/16 09:18:26;;;;;;;31.05;17.58;;;;;;;2.61;85.44;99409.25;4858480;29;20170;-88
2022/01/16 09:20:52;;;;;;;35.67;17.45;;;;;;;1.66;85.83;99262.81;4858778;29;20377;-89
2022/01/16 09:23:18;;;;;;;27.67;17.30;;;;;;;2.19;85.25;99342.28;4858609;29;20033;-89
2022/01/16 09:25:58;;;;;;;34.20;19.10;;;;;;;1.46;85.28;99218.59;4858904;29;20611;-89
2022/01/16 09:28:55;;;;;;;30.55;17.35;;;;;;;1.57;85.74;99248.09;4843583;29;20037;-88
2022/01/16 09:31:27;;;;;;;29.13;17.13;;;;;;;1.31;85.25;99202.00;4857809;29;20068;-88
2022/01/16 09:33:54;;;;;;;30.23;17.75;;;;;;;2.27;85.50;99360.59;4852797;29;20037;-91
2022/01/16 09:36:30;;;;;;;34.92;17.00;;;;;;;2.71;86.00;99430.91;4843810;29;20029;-89
2022/01/16 09:39:04;;;;;;;34.60;18.52;;;;;;;1.92;85.75;99305.25;4858946;29;20030;-88
2022/01/16 09:41:32;;;;;;;29.45;16.83;;;;;;;2.67;85.86;99427.78;4858139;29;20125;-90
2022/01/16 09:44:04;;;;;;;31.77;18.05;;;;;;;2.03;85.95;99317.97;4842473;29;20037;-88
2022/01/16 09:46:29;;;;;;;29.20;16.45;;;;;;;2.75;85.68;99437.44;4843347;29;20066;-88
2022/01/16 09:49:18;;;;;;;28.23;17.48;;;;;;;2.73;85.60;99434.16;4858661;29;20041;-88
2022/01/16 09:52:07;;;;;;;29.27;16.80;;;;;;;2.39;85.61;99381.22;4858330;29;20449;-90
2022/01/16 09:54:32;;;;;;;25.30;15.52;;;;;;;2.19;85.49;99350.19;4858911;29;20030;-91
2022/01/16 09:56:58;;;;;;;23.52;14.88;;;;;;;2.60;84.98;99418.19;4858349;29;20033;-88
2022/01/16 09:59:24;;;;;;;27.20;15.13;;;;;;;1.63;85.11;99263.97;4859098;29;20112;-88
2022/01/16 10:01:50;;;;;;;23.80;14.38;;;;;;;2.05;85.23;99332.56;4859768;29;20416;-87
2022/01/16 10:04:36;;;;;;;23.85;14.18;;;;;;;1.98;85.25;99307.16;4859510;29;20187;-86
2022/01/16 10:07:30;;;;;;;23.52;15.27;;;;;;;1.61;85.28;99259.88;4858328;29;20029;-89
2022/01/16 10:10:31;;;;;;;16.92;11.38;;;;;;;2.79;84.61;99430.78;4858253;29;20125;-88
2022/01/16 10:13:06;;;;;;;22.05;13.20;;;;;;;2.18;83.86;99350.38;4871341;29;20635;-88
2022/01/16 10:15:32;;;;;;;68.05;17.73;;;;;;;2.12;83.53;99330.00;4858803;29;20049;-86
2022/01/16 10:18:05;;;;;;;101.28;21.60;;;;;;;2.17;83.63;99351.34;4858428;29;20475;-89
2022/01/16 10:21:09;;;;;;;98.32;21.98;;;;;;;2.06;83.58;99341.28;4858180;29;20486;-88
2022/01/16 10:23:40;;;;;;;29.10;16.45;;;;;;;2.46;83.85;99398.75;4848706;29;20040;-87
2022/01/16 10:26:05;;;;;;;23.38;13.98;;;;;;;2.46;84.10;99422.47;4858811;29;20025;-86
2022/01/16 10:28:33;;;;;;;23.45;15.00;;;;;;;2.48;84.18;99406.47;4843037;29;20034;-89
2022/01/16 10:30:59;;;;;;;24.85;14.15;;;;;;;1.78;83.65;99295.53;4859703;29;20070;-86
2022/01/16 10:33:26;;;;;;;23.45;14.00;;;;;;;2.42;84.09;99402.75;4857724;29;20025;-87
2022/01/16 10:35:54;;;;;;;24.42;14.88;;;;;;;2.04;84.39;99348.53;4859391;29;20040;-90
2022/01/16 10:38:22;;;;;;;25.83;14.00;;;;;;;1.42;84.39;99256.78;4852710;29;20509;-88
2022/01/16 10:40:50;;;;;;;20.65;13.55;;;;;;;1.88;84.39;99323.22;4847922;29;20088;-87
2022/01/16 10:43:42;;;;;;;22.85;13.23;;;;;;;2.32;84.71;99404.84;4858289;29;20485;-86
2022/01/16 10:46:16;;;;;;;23.33;13.63;;;;;;;1.38;84.55;99263.41;4842375;29;20038;-86
2022/01/16 10:48:42;;;;;;;20.88;14.07;;;;;;;1.28;84.84;99270.75;4857715;29;20540;-86
2022/01/16 10:51:20;;;;;;;22.60;14.30;;;;;;;2.28;84.88;99441.25;4857231;29;20034;-86
2022/01/16 10:53:51;;;;;;;22.85;14.27;;;;;;;2.28;84.90;99427.28;4856501;29;20069;-87
2022/01/16 10:56:26;;;;;;;21.98;12.27;;;;;;;1.82;84.70;99349.44;4857177;29;20120;-87
2022/01/16 10:58:56;;;;;;;24.95;14.10;;;;;;;1.57;85.16;99306.78;4845863;29;20033;-87
2022/01/16 11:01:21;;;;;;;24.13;13.73;;;;;;;1.46;85.62;99304.59;4828592;29;20046;-89
2022/01/16 11:03:51;;;;;;;29.40;13.65;;;;;;;1.37;85.29;99274.13;4859536;29;20037;-89
2022/01/16 11:06:27;;;;;;;23.58;13.70;;;;;;;1.68;85.77;99348.44;4857745;29;20076;-88
2022/01/16 11:09:03;;;;;;;24.60;14.20;;;;;;;1.82;85.66;99354.69;4853753;29;20061;-88
2022/01/16 11:11:32;;;;;;;23.98;12.55;;;;;;;1.49;86.02;99305.03;4861177;29;20033;-88
2022/01/16 11:14:04;;;;;;;25.50;14.00;;;;;;;1.60;85.74;99316.94;4860788;29;20033;-88
2022/01/16 11:16:31;;;;;;;20.45;13.30;;;;;;;1.90;86.16;99368.59;4846316;29;20108;-89
2022/01/16 11:19:09;;;;;;;35.63;13.23;;;;;;;1.83;85.76;99354.53;4835874;29;20070;-89
2022/01/16 11:21:41;;;;;;;24.38;14.55;;;;;;;1.64;85.64;99318.22;4861477;29;20030;-89
2022/01/16 11:26:59;;;;;;;22.00;13.85;;;;;;;1.20;86.16;99230.56;4858007;29;20567;-88
2022/01/16 11:29:29;;;;;;;21.40;13.30;;;;;;;2.38;85.85;99417.25;4845834;29;20077;-90
2022/01/16 11:36:08;;;;;;;24.38;13.10;;;;;;;1.23;86.31;99227.56;4858399;29;20038;-89
2022/01/16 11:38:59;;;;;;;21.67;14.55;;;;;;;2.39;86.22;99411.00;4874608;29;20499;-87
2022/01/16 11:41:39;;;;;;;22.63;13.63;;;;;;;1.45;86.05;99261.69;4878100;29;20033;-89
2022/01/16 11:44:31;;;;;;;27.05;15.48;;;;;;;1.43;86.24;99252.34;4879492;29;20021;-89
2022/01/16 11:47:01;;;;;;;26.33;14.20;;;;;;;1.73;85.74;99300.53;4864480;29;20186;-90
2022/01/16 11:49:35;;;;;;;24.45;13.73;;;;;;;2.22;86.13;99375.34;4857883;29;20054;-90
2022/01/16 11:52:37;;;;;;;26.17;16.05;;;;;;;2.42;86.38;99401.94;4845970;29;20030;-90
2022/01/16 11:55:08;;;;;;;23.67;14.77;;;;;;;1.50;85.97;99254.09;4855448;29;20064;-90
2022/01/16 11:57:35;;;;;;;35.17;16.73;;;;;;;1.96;86.17;99327.59;4876340;29;20037;-91
2022/01/16 12:00:14;;;;;;;27.60;16.15;;;;;;;2.46;86.33;99396.13;4861052;29;20026;-90
2022/01/16 12:02:42;;;;;;;31.38;17.35;;;;;;;2.49;86.53;99403.63;4845493;29;20539;-89
2022/01/16 12:05:09;;;;;;;32.53;17.88;;;;;;;1.79;86.15;99281.41;4845382;29;20053;-90
2022/01/16 12:07:34;;;;;;;33.35;17.58;;;;;;;2.21;86.45;99350.00;4857371;29;20484;-92
2022/01/16 12:10:00;;;;;;;30.67;17.17;;;;;;;2.28;86.33;99374.59;4860843;29;20057;-91
2022/01/16 12:12:26;;;;;;;28.05;17.08;;;;;;;2.27;86.26;99357.19;4850882;29;20400;-90
2022/01/16 12:15:07;;;;;;;26.35;16.70;;;;;;;2.06;86.22;99310.50;4862055;29;20101;-90
2022/01/16 12:17:48;;;;;;;27.75;16.17;;;;;;;2.09;86.46;99323.31;4859700;29;20036;-90
2022/01/16 12:20:24;;;;;;;29.48;17.17;;;;;;;2.56;86.27;99398.44;4859524;29;20040;-91
2022/01/16 12:23:09;;;;;;;34.30;20.00;;;;;;;2.16;86.47;99353.16;4860514;29;20098;-91
2022/01/16 12:25:52;;;;;;;36.05;20.10;;;;;;;1.44;86.32;99225.06;4861942;29;20090;-91
2022/01/16 12:28:23;;;;;;;36.35;20.77;;;;;;;1.85;86.36;99289.38;4860593;29;20037;-90
2022/01/16 12:30:59;;;;;;;33.28;20.25;;;;;;;1.61;86.53;99246.75;4860369;29;20042;-89
2022/01/16 12:33:29;;;;;;;34.28;19.90;;;;;;;2.60;86.45;99405.81;4860451;29;20500;-89
2022/01/16 12:36:05;;;;;;;37.88;20.38;;;;;;;2.61;86.59;99404.00;4861039;29;20045;-89